Terminal Aerodrome Forecast
Issued by NWS Charleston, SC

Home | Current Version | Previous Version | Text Only | Print | Product List | Glossary On
Versions: 1 2 3 4 5 6 7 8 9 10 11 12 13 14 15 16 17 18 19 20 21 22 23 24 25
000
FTUS42 KCHS 040752 AAB
TAFCHS
TAF AMD
KCHS 040752Z 0408/0506 04004KT P6SM -SHRA BKN015 BKN025
      TEMPO 0408/0409 5SM SHRA SCT008 OVC015
     FM040900 VRB03KT P6SM VCSH SCT015 BKN035
     FM041300 35005KT P6SM SCT025 BKN060
     FM041700 20008KT P6SM VCTS SCT030CB BKN080
     FM050000 22007KT P6SM SCT015=

USA.gov is the U.S. government's official web portal to all federal, state and local government web resources and services.